Time;durP1;ratioP1;P1;durP2;ratioP2;P2;SDS_P1;SDS_P2;PMS_P1;PMS_P2;Temp;Humidity;BMP_temperature;BMP_pressure;BME280_temperature;BME280_humidity;BME280_pressure;Samples;Min_cycle;Max_cycle;Signal;HPM_P1;HPM_P2
2022/08/19 00:04:52;;;;;;;30.83;17.70;;;18.00;99.90;;;;;;20991430;28;20376;-75
2022/08/19 00:14:54;;;;;;;29.80;18.63;;;18.00;99.90;;;;;;20991165;28;20415;-74
2022/08/19 00:24:54;;;;;;;;;;;17.90;99.90;;;;;;20990927;28;20044;-74
2022/08/19 00:34:55;;;;;;;28.87;17.30;;;18.00;99.90;;;;;;20990374;28;20427;-75
2022/08/19 00:44:56;;;;;;;24.23;14.83;;;18.00;99.90;;;;;;20990392;28;20048;-75
2022/08/19 00:54:58;;;;;;;26.83;13.80;;;17.90;99.90;;;;;;20989791;28;20047;-74
2022/08/19 01:05:02;;;;;;;21.83;14.25;;;17.90;99.90;;;;;;20997331;28;20033;-74
2022/08/19 01:15:05;;;;;;;20.95;13.85;;;17.90;99.90;;;;;;21004938;28;20071;-75
2022/08/19 01:25:07;;;;;;;19.05;11.60;;;17.90;99.90;;;;;;21003805;28;20044;-74
2022/08/19 01:35:09;;;;;;;13.55;10.10;;;17.90;99.90;;;;;;20985674;28;20051;-75
2022/08/19 01:45:10;;;;;;;16.90;11.27;;;17.80;99.90;;;;;;21013172;28;20383;-75
2022/08/19 01:55:17;;;;;;;18.00;10.53;;;17.80;99.90;;;;;;21001074;28;20032;-75
2022/08/19 02:05:18;;;;;;;18.42;12.13;;;17.70;99.90;;;;;;21000230;28;20044;-75
2022/08/19 02:15:19;;;;;;;17.37;12.17;;;17.70;99.90;;;;;;20999603;28;20570;-74
2022/08/19 02:25:20;;;;;;;23.63;14.70;;;17.60;99.90;;;;;;20999527;28;20131;-74
2022/08/19 02:35:22;;;;;;;19.00;13.30;;;17.50;99.90;;;;;;20998331;28;20483;-74
2022/08/19 02:45:23;;;;;;;20.63;12.63;;;17.50;99.90;;;;;;20980510;28;20049;-74
2022/08/19 02:55:23;;;;;;;17.10;10.93;;;17.50;99.90;;;;;;20996889;28;20465;-74
2022/08/19 03:05:24;;;;;;;20.83;12.53;;;17.50;99.90;;;;;;20995792;28;20036;-74
2022/08/19 03:15:25;;;;;;;16.47;11.27;;;17.50;99.90;;;;;;20995182;28;20030;-74
2022/08/19 03:25:26;;;;;;;17.70;11.43;;;17.40;99.90;;;;;;20994074;28;20112;-74
2022/08/19 03:35:27;;;;;;;17.47;11.50;;;17.30;99.90;;;;;;20996572;28;20060;-74
2022/08/19 03:45:29;;;;;;;21.33;12.97;;;17.30;99.90;;;;;;20992457;28;20064;-74
2022/08/19 03:55:30;;;;;;;22.23;14.43;;;17.30;99.90;;;;;;20992004;28;20518;-74
2022/08/19 04:05:31;;;;;;;23.87;13.87;;;17.30;99.90;;;;;;20991405;28;20064;-74
2022/08/19 04:15:38;;;;;;;24.60;15.43;;;17.30;99.90;;;;;;20991006;28;20047;-74
2022/08/19 04:25:42;;;;;;;26.17;16.13;;;17.30;99.90;;;;;;20990874;28;20051;-74
2022/08/19 04:35:46;;;;;;;25.88;16.33;;;17.30;99.90;;;;;;20991360;28;20048;-74
2022/08/19 04:45:47;;;;;;;30.10;17.58;;;17.20;99.90;;;;;;21006469;28;20050;-74
2022/08/19 04:55:48;;;;;;;28.73;17.57;;;17.20;99.90;;;;;;21005874;28;20072;-74
2022/08/19 05:05:50;;;;;;;29.45;15.95;;;17.30;99.90;;;;;;21004607;28;20075;-74
2022/08/19 05:15:56;;;;;;;25.40;15.90;;;17.30;99.90;;;;;;21008774;28;20041;-72
2022/08/19 05:25:57;;;;;;;28.38;17.25;;;17.30;99.90;;;;;;21007146;28;20040;-73
2022/08/19 05:35:58;;;;;;;25.00;15.50;;;17.40;99.90;;;;;;21035899;22;20152;-78
2022/08/19 05:45:59;;;;;;;22.70;13.97;;;17.30;99.90;;;;;;21086552;28;20043;-79
2022/08/19 05:56:08;;;;;;;29.20;14.60;;;17.40;99.90;;;;;;21085499;28;20681;-77
2022/08/19 06:06:10;;;;;;;21.15;13.77;;;17.40;99.90;;;;;;21084427;28;20363;-77
2022/08/19 06:16:11;;;;;;;22.52;14.00;;;17.40;99.90;;;;;;21082371;28;20040;-76
2022/08/19 06:26:13;;;;;;;22.53;14.27;;;17.40;99.90;;;;;;21082767;28;20043;-77
2022/08/19 06:36:24;;;;;;;25.60;13.35;;;17.40;99.90;;;;;;21082419;28;20395;-77
2022/08/19 06:46:26;;;;;;;24.48;14.38;;;17.50;99.90;;;;;;21081440;28;20036;-77
2022/08/19 06:56:31;;;;;;;22.38;13.25;;;17.50;99.90;;;;;;21084607;28;20051;-80
2022/08/19 07:06:32;;;;;;;18.42;12.50;;;17.50;99.90;;;;;;21078853;28;20044;-79
2022/08/19 07:16:34;;;;;;;22.47;12.87;;;17.50;99.90;;;;;;21082275;28;20052;-80
2022/08/19 07:26:38;;;;;;;;;;;17.70;99.90;;;;;;21083560;28;20101;-79
2022/08/19 07:36:41;;;;;;;26.55;14.88;;;17.70;99.90;;;;;;21082221;28;20326;-78
2022/08/19 07:46:45;;;;;;;24.45;15.20;;;17.70;99.90;;;;;;21096616;28;20525;-80
2022/08/19 07:56:46;;;;;;;24.27;14.88;;;17.70;99.90;;;;;;21092161;28;20061;-79
2022/08/19 08:17:06;;;;;;;28.95;18.77;;;17.60;99.90;;;;;;21083806;28;20043;-79
2022/08/19 08:27:07;;;;;;;31.63;20.27;;;17.70;99.90;;;;;;21076890;28;20099;-79
2022/08/19 08:37:08;;;;;;;30.73;18.67;;;17.70;99.90;;;;;;21110797;28;20059;-79
2022/08/19 08:47:14;;;;;;;35.30;20.40;;;17.70;99.90;;;;;;21104562;28;20036;-78
2022/08/19 08:57:27;;;;;;;33.45;20.40;;;17.80;99.90;;;;;;21110531;28;20047;-79
2022/08/19 09:07:47;;;;;;;31.83;18.40;;;17.80;99.90;;;;;;21108021;28;20043;-79
2022/08/19 09:17:48;;;;;;;31.65;19.67;;;17.90;99.90;;;;;;21084428;28;20044;-79
2022/08/19 09:27:53;;;;;;;34.23;21.13;;;17.90;99.90;;;;;;21114575;28;20104;-78
2022/08/19 09:37:54;;;;;;;36.10;21.45;;;18.00;99.90;;;;;;21112680;28;20068;-79
2022/08/19 09:47:56;;;;;;;;;;;18.00;99.90;;;;;;21119521;28;20036;-78
2022/08/19 09:57:56;;;;;;;39.72;23.35;;;18.20;99.90;;;;;;21122442;28;19915;-79
2022/08/19 10:08:00;;;;;;;37.10;22.00;;;18.60;99.90;;;;;;21105583;28;20044;-78
2022/08/19 10:18:01;;;;;;;36.42;22.55;;;18.70;99.90;;;;;;21076732;28;20044;-79
2022/08/19 10:28:02;;;;;;;33.10;21.10;;;18.90;99.90;;;;;;21095184;28;20044;-79
2022/08/19 10:38:03;;;;;;;33.55;20.05;;;19.00;99.90;;;;;;21072024;28;20040;-79
2022/08/19 10:48:04;;;;;;;29.83;19.83;;;19.00;99.90;;;;;;20977011;28;20039;-79
2022/08/19 10:58:12;;;;;;;32.47;20.83;;;19.20;99.90;;;;;;20961864;28;20277;-78
2022/08/19 11:08:12;;;;;;;29.38;19.40;;;19.30;99.90;;;;;;20953219;28;20064;-78
2022/08/19 11:18:13;;;;;;;28.57;19.03;;;19.40;99.90;;;;;;20954106;28;20043;-78
2022/08/19 11:28:14;;;;;;;33.20;18.73;;;19.50;99.90;;;;;;20959011;28;20040;-79
2022/08/19 11:38:15;;;;;;;27.43;15.90;;;19.70;99.90;;;;;;21010819;22;20502;-74
2022/08/19 11:48:16;;;;;;;31.77;18.43;;;19.70;99.90;;;;;;21033071;28;20043;-74
2022/08/19 11:58:17;;;;;;;28.60;19.10;;;19.50;99.90;;;;;;21032131;28;20043;-74
2022/08/19 12:08:19;;;;;;;32.17;20.65;;;19.50;99.90;;;;;;20995378;28;20123;-74
2022/08/19 12:18:20;;;;;;;30.92;21.00;;;19.60;99.90;;;;;;20964618;28;20050;-75
2022/08/19 12:28:22;;;;;;;37.65;17.95;;;19.70;99.90;;;;;;20990274;28;20463;-74
2022/08/19 12:38:24;;;;;;;27.77;18.95;;;19.80;99.90;;;;;;20989758;28;20125;-74
2022/08/19 12:48:24;;;;;;;;;;;20.00;99.90;;;;;;20990749;28;20107;-75
2022/08/19 12:58:26;;;;;;;29.40;19.40;;;20.30;99.90;;;;;;20993290;28;19920;-76
2022/08/19 13:08:27;;;;;;;29.40;19.27;;;20.50;99.90;;;;;;21005409;28;20127;-76
2022/08/19 13:18:28;;;;;;;26.43;16.33;;;20.70;99.90;;;;;;21005365;28;20533;-76
2022/08/19 13:38:48;;;;;;;23.85;16.52;;;22.00;99.90;;;;;;21003777;28;20549;-76
2022/08/19 13:48:49;;;;;;;26.30;18.20;;;21.20;99.90;;;;;;20984830;28;20079;-75
2022/08/19 13:58:50;;;;;;;30.20;18.80;;;20.80;99.90;;;;;;20983494;28;20502;-75
2022/08/19 14:08:52;;;;;;;26.73;17.70;;;20.60;99.90;;;;;;21001049;28;20044;-75
2022/08/19 14:18:53;;;;;;;27.05;17.27;;;20.30;99.90;;;;;;21000351;28;20047;-75
2022/08/19 14:28:57;;;;;;;28.20;15.10;;;19.70;99.90;;;;;;21004271;28;20068;-75
2022/08/19 14:38:59;;;;;;;17.88;12.68;;;19.60;99.90;;;;;;21004018;28;20052;-75
2022/08/19 14:49:00;;;;;;;23.45;14.60;;;19.50;99.90;;;;;;20997034;28;20054;-75
2022/08/19 14:59:01;;;;;;;18.37;12.73;;;19.80;99.90;;;;;;20996792;28;20127;-76
2022/08/19 15:09:03;;;;;;;14.97;10.83;;;20.20;99.90;;;;;;20995546;28;20462;-75
2022/08/19 15:19:04;;;;;;;15.55;11.73;;;20.60;99.90;;;;;;20994253;28;20036;-75
2022/08/19 15:29:05;;;;;;;14.43;10.67;;;21.10;99.90;;;;;;20993924;28;20040;-75
2022/08/19 15:39:08;;;;;;;14.00;10.37;;;21.10;99.90;;;;;;20988445;28;20040;-75
2022/08/19 15:49:11;;;;;;;15.63;11.40;;;21.10;99.90;;;;;;21001426;28;20529;-75
2022/08/19 16:09:42;;;;;;;16.35;12.38;;;20.70;99.90;;;;;;20938949;28;20056;-75
2022/08/19 16:19:43;;;;;;;18.13;13.27;;;20.70;99.90;;;;;;20994265;28;20067;-75
2022/08/19 16:29:43;;;;;;;17.63;13.83;;;20.50;99.90;;;;;;20989423;28;20089;-75
2022/08/19 16:39:44;;;;;;;19.77;14.57;;;20.20;99.90;;;;;;21017368;28;20060;-75
2022/08/19 16:49:45;;;;;;;26.57;14.87;;;20.10;99.90;;;;;;21007035;28;20043;-75
2022/08/19 16:59:46;;;;;;;19.20;14.57;;;20.00;99.90;;;;;;20989167;28;20111;-75
2022/08/19 17:09:47;;;;;;;23.13;14.80;;;19.90;99.90;;;;;;20988553;28;20086;-75
2022/08/19 17:19:48;;;;;;;21.07;15.27;;;19.90;99.90;;;;;;20988213;28;20060;-75
2022/08/19 17:29:48;;;;;;;21.10;14.87;;;19.80;99.90;;;;;;20987550;28;20032;-75
2022/08/19 17:39:49;;;;;;;24.50;15.57;;;19.70;99.90;;;;;;20989662;28;20064;-74
2022/08/19 17:49:50;;;;;;;20.20;14.10;;;19.80;99.90;;;;;;21000536;28;20094;-75
2022/08/19 17:59:51;;;;;;;21.83;15.23;;;19.70;99.90;;;;;;21009848;28;20032;-74
2022/08/19 18:09:53;;;;;;;20.70;13.60;;;19.60;99.90;;;;;;20995624;28;20036;-74
2022/08/19 18:19:54;;;;;;;20.67;14.90;;;19.70;99.90;;;;;;21004127;28;20290;-74
2022/08/19 18:29:57;;;;;;;20.13;14.40;;;19.60;99.90;;;;;;20993303;28;20051;-74
2022/08/19 18:50:18;;;;;;;16.77;13.38;;;19.50;99.90;;;;;;20996778;28;20044;-74
2022/08/19 19:00:19;;;;;;;16.90;13.03;;;19.40;99.90;;;;;;20995253;28;20032;-74
2022/08/19 19:10:20;;;;;;;17.95;13.57;;;19.30;99.90;;;;;;21021050;28;20040;-75
2022/08/19 19:20:21;;;;;;;15.67;12.20;;;19.30;99.90;;;;;;21010384;28;20109;-74
2022/08/19 19:30:25;;;;;;;24.43;13.27;;;19.20;99.90;;;;;;20993877;28;20040;-74
2022/08/19 19:40:26;;;;;;;19.23;13.48;;;18.90;99.90;;;;;;20992907;28;20040;-75
2022/08/19 19:50:28;;;;;;;;;;;18.90;99.90;;;;;;20993122;28;20112;-74
2022/08/19 20:00:29;;;;;;;26.30;16.10;;;18.50;99.90;;;;;;20994047;28;20182;-74
2022/08/19 20:10:31;;;;;;;24.93;14.63;;;18.30;99.90;;;;;;21035439;28;20044;-74
2022/08/19 20:20:32;;;;;;;;;;;18.40;99.90;;;;;;21044734;28;20101;-74
2022/08/19 20:30:32;;;;;;;21.48;15.63;;;18.10;99.90;;;;;;21015087;28;19909;-74
2022/08/19 20:40:34;;;;;;;26.53;16.50;;;17.70;99.90;;;;;;20995993;28;20087;-74
2022/08/19 20:50:36;;;;;;;24.73;15.88;;;17.50;99.90;;;;;;20996607;28;20127;-74
2022/08/19 21:00:37;;;;;;;20.23;14.50;;;17.50;99.90;;;;;;20994260;28;20502;-74
2022/08/19 21:10:38;;;;;;;24.42;16.88;;;17.50;99.90;;;;;;21012507;28;20043;-74
2022/08/19 21:20:40;;;;;;;21.00;14.30;;;17.00;99.90;;;;;;21080673;28;20036;-73
2022/08/19 21:30:42;;;;;;;25.65;16.35;;;17.00;99.90;;;;;;21090334;28;20032;-75
2022/08/19 21:40:42;;;;;;;26.63;14.95;;;17.00;99.90;;;;;;21069523;28;20040;-75
2022/08/19 21:50:44;;;;;;;21.73;14.67;;;17.00;99.90;;;;;;21087132;28;20410;-75
2022/08/19 22:00:46;;;;;;;22.10;14.90;;;17.00;99.90;;;;;;21086069;28;20036;-74
2022/08/19 22:10:48;;;;;;;;;;;16.60;99.90;;;;;;21084938;28;20521;-75
2022/08/19 22:20:49;;;;;;;21.53;14.33;;;16.20;99.90;;;;;;21032005;28;19919;-74
2022/08/19 22:30:50;;;;;;;22.97;15.57;;;16.30;99.90;;;;;;20979813;28;20444;-74
2022/08/19 22:40:51;;;;;;;26.00;16.50;;;16.00;99.90;;;;;;20997611;28;20621;-74
2022/08/19 23:01:14;;;;;;;30.52;18.65;;;15.50;99.90;;;;;;21006347;28;20116;-73
2022/08/19 23:11:15;;;;;;;50.70;25.33;;;15.30;99.90;;;;;;21016627;28;20048;-74
2022/08/19 23:21:16;;;;;;;53.67;26.43;;;15.50;99.90;;;;;;21035320;28;20041;-74
2022/08/19 23:31:17;;;;;;;61.23;29.33;;;15.30;99.90;;;;;;21033561;28;20044;-74
2022/08/19 23:41:20;;;;;;;38.03;22.70;;;15.60;99.90;;;;;;20999762;28;20688;-75
2022/08/19 23:51:21;;;;;;;44.00;22.45;;;15.80;99.90;;;;;;21011379;28;20108;-75
